Time;durP1;ratioP1;P1;durP2;ratioP2;P2;SDS_P1;SDS_P2;PMS_P1;PMS_P2;Temp;Humidity;BMP_temperature;BMP_pressure;BME280_temperature;BME280_humidity;BME280_pressure;Samples;Min_cycle;Max_cycle;Signal;HPM_P1;HPM_P2
2023/07/25 00:04:31;;;;;;;9.40;2.30;;;;;;;18.18;97.82;98989.42;223587;1270;139760;-86
2023/07/25 00:09:32;;;;;;;6.60;2.30;;;;;;;18.15;97.90;98988.05;223101;1266;140920;-88
2023/07/25 00:14:33;;;;;;;4.90;2.00;;;;;;;18.08;98.74;98992.77;223658;1271;139168;-87
2023/07/25 00:19:33;;;;;;;7.60;2.40;;;;;;;18.07;99.11;98991.08;223208;1267;140862;-87
2023/07/25 00:24:34;;;;;;;5.90;2.00;;;;;;;18.02;99.11;98989.09;223712;1267;138393;-87
2023/07/25 00:29:34;;;;;;;4.90;1.90;;;;;;;18.00;99.14;99002.35;223144;1267;141164;-87
2023/07/25 00:34:34;;;;;;;9.00;2.10;;;;;;;17.96;99.37;99012.40;223669;1267;139669;-87
2023/07/25 00:39:35;;;;;;;6.40;2.30;;;;;;;17.92;99.10;99021.04;223032;1267;141684;-88
2023/07/25 00:44:35;;;;;;;6.00;2.50;;;;;;;17.90;99.51;99015.31;223615;1267;139792;-87
2023/07/25 00:49:36;;;;;;;5.30;2.30;;;;;;;17.86;99.77;99015.58;223206;1267;143151;-88
2023/07/25 00:54:50;;;;;;;6.80;2.70;;;;;;;17.82;99.81;99005.54;223665;1267;138736;-87
2023/07/25 00:59:51;;;;;;;8.20;2.90;;;;;;;17.80;100.00;99004.52;223137;1267;142818;-88
2023/07/25 01:04:51;;;;;;;8.90;3.20;;;;;;;17.79;100.00;99018.66;223600;1267;139490;-88
2023/07/25 01:09:52;;;;;;;10.00;3.30;;;;;;;17.77;100.00;99018.73;223132;1267;144424;-87
2023/07/25 01:14:52;;;;;;;9.30;3.40;;;;;;;17.76;100.00;99026.65;223653;1267;139587;-88
2023/07/25 01:19:54;;;;;;;5.70;2.70;;;;;;;17.73;100.00;99028.67;223099;1267;142773;-86
2023/07/25 01:24:55;;;;;;;8.20;3.30;;;;;;;17.70;100.00;99028.14;223766;1267;95857;-87
2023/07/25 01:29:55;;;;;;;7.20;3.30;;;;;;;17.66;100.00;99037.68;223125;1267;141436;-88
2023/07/25 01:34:56;;;;;;;7.40;2.90;;;;;;;17.65;100.00;99036.63;223665;1267;139593;-87
2023/07/25 01:39:56;;;;;;;7.00;3.10;;;;;;;17.65;100.00;99044.42;223019;1267;141547;-88
2023/07/25 01:44:56;;;;;;;9.70;2.90;;;;;;;17.61;100.00;99048.05;223501;1266;139669;-87
2023/07/25 01:49:57;;;;;;;6.30;3.20;;;;;;;17.58;100.00;99048.80;223086;1267;141747;-88
2023/07/25 01:54:58;;;;;;;9.90;2.80;;;;;;;17.53;100.00;99050.11;223776;1267;95860;-87
2023/07/25 01:59:58;;;;;;;7.90;3.00;;;;;;;17.48;100.00;99056.83;223064;1266;140718;-87
2023/07/25 02:04:59;;;;;;;5.00;2.40;;;;;;;17.42;100.00;99055.02;223611;1267;139060;-87
2023/07/25 02:09:59;;;;;;;7.50;3.10;;;;;;;17.34;100.00;99057.98;223073;1267;140991;-87
2023/07/25 02:14:59;;;;;;;5.70;2.60;;;;;;;17.30;100.00;99062.13;223652;1267;139477;-87
2023/07/25 02:20:00;;;;;;;6.10;2.70;;;;;;;17.25;100.00;99071.38;223086;1266;141680;-87
2023/07/25 02:25:00;;;;;;;10.30;2.80;;;;;;;17.19;100.00;99070.55;223728;1266;96321;-87
2023/07/25 02:30:01;;;;;;;7.30;2.40;;;;;;;17.13;100.00;99074.41;223078;1267;141410;-87
2023/07/25 02:35:01;;;;;;;6.90;2.50;;;;;;;17.11;99.98;99078.09;223599;1266;139047;-87
2023/07/25 02:40:02;;;;;;;6.20;2.90;;;;;;;17.08;100.00;99086.23;223080;1267;142778;-87
2023/07/25 02:45:03;;;;;;;6.60;3.00;;;;;;;17.05;100.00;99099.34;223637;1267;138963;-87
2023/07/25 02:50:03;;;;;;;9.90;3.40;;;;;;;17.04;100.00;99108.20;223123;1266;142285;-86
2023/07/25 02:55:05;;;;;;;13.60;3.70;;;;;;;17.04;100.00;99111.93;223700;1267;95900;-88
2023/07/25 03:00:07;;;;;;;7.60;3.10;;;;;;;17.02;100.00;99116.23;223118;1266;141155;-88
2023/07/25 03:05:08;;;;;;;9.40;3.60;;;;;;;17.01;100.00;99122.44;223615;1267;139495;-87
2023/07/25 03:10:09;;;;;;;7.40;4.30;;;;;;;16.97;100.00;99124.20;223099;1267;140890;-89
2023/07/25 03:15:09;;;;;;;9.00;4.10;;;;;;;16.96;100.00;99130.02;223642;1266;139661;-87
2023/07/25 03:20:10;;;;;;;9.60;5.60;;;;;;;16.93;100.00;99131.56;223127;1266;141213;-88
2023/07/25 03:25:11;;;;;;;11.00;6.00;;;;;;;16.87;100.00;99126.52;223741;1266;96085;-88
2023/07/25 03:30:11;;;;;;;13.00;7.40;;;;;;;16.79;100.00;99124.88;223131;1266;140810;-87
2023/07/25 03:35:12;;;;;;;14.00;8.00;;;;;;;16.75;100.00;99119.31;223652;1267;139715;-87
2023/07/25 03:40:12;;;;;;;14.90;8.10;;;;;;;16.71;100.00;99121.05;223049;1266;142520;-87
2023/07/25 03:45:13;;;;;;;14.00;8.60;;;;;;;16.71;100.00;99111.59;223638;1266;139130;-87
2023/07/25 03:50:14;;;;;;;18.30;9.60;;;;;;;16.74;100.00;99112.60;223095;1266;141468;-88
2023/07/25 03:55:14;;;;;;;20.20;10.90;;;;;;;16.74;100.00;99115.88;223641;1267;96028;-89
2023/07/25 04:00:15;;;;;;;16.00;8.70;;;;;;;16.76;100.00;99104.39;223018;1267;140955;-88
2023/07/25 04:05:15;;;;;;;15.30;9.10;;;;;;;16.81;100.00;99104.48;223536;1266;139614;-87
2023/07/25 04:10:15;;;;;;;17.30;9.50;;;;;;;16.86;100.00;99115.30;222986;1266;142841;-89
2023/07/25 04:15:16;;;;;;;17.10;10.10;;;;;;;16.89;100.00;99127.32;223684;1266;139840;-89
2023/07/25 04:20:17;;;;;;;14.80;8.80;;;;;;;16.92;100.00;99126.98;223065;1266;143107;-88
2023/07/25 04:25:17;;;;;;;13.20;8.20;;;;;;;16.94;100.00;99125.02;223620;1267;96813;-88
2023/07/25 04:30:17;;;;;;;14.90;9.00;;;;;;;17.02;100.00;99124.64;222998;1266;143869;-89
2023/07/25 04:35:18;;;;;;;12.00;7.90;;;;;;;17.12;100.00;99130.89;223559;1266;138947;-88
2023/07/25 04:40:19;;;;;;;14.50;7.40;;;;;;;17.22;100.00;99139.55;223012;1266;141625;-90
2023/07/25 04:45:19;;;;;;;12.40;6.50;;;;;;;17.29;100.00;99149.48;223564;1267;139453;-88
2023/07/25 04:50:20;;;;;;;13.20;7.40;;;;;;;17.35;100.00;99154.94;223010;1266;142217;-88
2023/07/25 04:55:20;;;;;;;11.50;6.60;;;;;;;17.40;100.00;99162.67;223695;1267;95994;-91
2023/07/25 05:00:21;;;;;;;13.50;7.60;;;;;;;17.48;100.00;99169.63;222966;1266;141449;-90
2023/07/25 05:05:21;;;;;;;17.10;7.10;;;;;;;17.46;100.00;99172.39;223476;1266;139077;-89
2023/07/25 05:10:22;;;;;;;10.10;6.30;;;;;;;17.45;100.00;99173.15;223010;1266;142014;-88
2023/07/25 05:15:23;;;;;;;12.80;6.50;;;;;;;17.47;100.00;99172.99;223566;1266;139557;-90
2023/07/25 05:20:23;;;;;;;11.70;6.60;;;;;;;17.59;100.00;99172.79;222979;1267;141003;-90
2023/07/25 05:25:24;;;;;;;15.00;6.00;;;;;;;17.65;100.00;99171.36;223729;1266;96319;-90
2023/07/25 05:30:24;;;;;;;11.60;6.40;;;;;;;17.74;100.00;99168.94;223026;1266;229018;-89
2023/07/25 05:35:25;;;;;;;10.20;6.00;;;;;;;17.90;100.00;99167.45;223541;1266;139613;-90
2023/07/25 05:40:25;;;;;;;9.80;6.10;;;;;;;18.11;100.00;99168.77;222958;1267;141148;-90
2023/07/25 05:45:26;;;;;;;10.70;5.50;;;;;;;18.33;99.75;99174.67;223565;1266;139530;-89
2023/07/25 05:50:26;;;;;;;10.90;5.50;;;;;;;18.51;98.58;99177.31;223008;1267;141329;-91
2023/07/25 05:55:27;;;;;;;8.40;4.80;;;;;;;18.65;97.42;99175.27;223699;1267;96077;-90
2023/07/25 06:00:27;;;;;;;11.30;5.60;;;;;;;18.81;96.95;99180.66;222891;1267;140945;-90
2023/07/25 06:05:28;;;;;;;10.40;4.90;;;;;;;18.91;95.38;99197.33;223556;1266;138799;-90
2023/07/25 06:10:28;;;;;;;16.10;6.00;;;;;;;18.96;94.70;99215.23;222986;1266;141809;-89
2023/07/25 06:15:29;;;;;;;9.50;4.80;;;;;;;19.08;94.70;99221.98;223597;1266;138835;-91
2023/07/25 06:20:32;;;;;;;9.90;4.30;;;;;;;19.18;93.98;99213.65;222996;1266;141784;-90
2023/07/25 06:25:33;;;;;;;9.00;4.30;;;;;;;19.37;92.86;99210.05;223639;1267;107271;-91
2023/07/25 06:30:33;;;;;;;11.50;4.60;;;;;;;19.48;91.90;99212.53;222988;1267;141687;-92
2023/07/25 06:35:34;;;;;;;7.70;4.20;;;;;;;19.57;91.14;99228.84;223520;1266;139510;-91
2023/07/25 06:40:34;;;;;;;10.20;4.60;;;;;;;19.72;89.79;99237.66;223053;1266;140446;-91
2023/07/25 06:45:35;;;;;;;8.90;4.00;;;;;;;19.76;88.98;99235.64;223579;1266;139513;-92
2023/07/25 06:50:35;;;;;;;11.30;4.60;;;;;;;20.01;88.63;99238.34;223014;1266;141456;-91
2023/07/25 06:55:37;;;;;;;7.40;3.90;;;;;;;20.28;88.22;99242.70;223697;1266;95789;-92
2023/07/25 07:00:38;;;;;;;8.70;4.90;;;;;;;20.47;86.52;99246.69;222920;1267;140248;-89
2023/07/25 07:05:38;;;;;;;10.00;5.10;;;;;;;20.45;85.53;99254.16;223512;1267;139597;-90
2023/07/25 07:10:39;;;;;;;10.10;4.20;;;;;;;20.45;85.48;99257.61;223048;1267;139443;-92
2023/07/25 07:15:39;;;;;;;9.90;4.00;;;;;;;20.55;84.95;99252.33;223538;1267;139730;-91
2023/07/25 07:20:43;;;;;;;8.40;4.30;;;;;;;20.59;84.29;99255.96;222940;1266;140453;-90
2023/07/25 07:25:44;;;;;;;9.00;4.90;;;;;;;20.56;83.38;99259.45;223564;1268;108594;-90
2023/07/25 07:30:49;;;;;;;8.80;4.40;;;;;;;20.57;82.88;99257.59;223056;1267;140700;-90
2023/07/25 07:35:50;;;;;;;14.10;6.00;;;;;;;20.56;82.94;99255.17;223559;1267;139035;-90
2023/07/25 07:40:51;;;;;;;12.20;4.70;;;;;;;20.41;82.56;99259.45;223008;1267;141369;-90
2023/07/25 07:45:57;;;;;;;9.80;4.40;;;;;;;20.41;83.46;99257.61;223648;1267;138853;-93
2023/07/25 07:51:03;;;;;;;9.50;4.80;;;;;;;20.51;82.90;99260.72;222931;1267;139755;-93
2023/07/25 07:56:04;;;;;;;7.60;4.20;;;;;;;20.46;81.56;99258.96;223472;1270;138814;-94
2023/07/25 08:01:13;;;;;;;9.30;4.40;;;;;;;20.54;81.92;99253.56;223190;1267;140597;-93
2023/07/25 08:06:14;;;;;;;8.30;4.80;;;;;;;20.71;81.92;99238.05;223482;1267;138975;-93
2023/07/25 08:11:14;;;;;;;7.60;4.60;;;;;;;20.81;80.34;99234.52;223077;1266;139754;-91
2023/07/25 08:16:15;;;;;;;8.30;4.40;;;;;;;21.04;79.64;99230.17;223603;1267;138820;-93
2023/07/25 08:21:16;;;;;;;7.60;4.20;;;;;;;21.24;78.79;99210.36;223015;1266;141700;-94
2023/07/25 08:26:16;;;;;;;9.90;4.20;;;;;;;21.44;77.59;99206.94;223546;1267;138670;-93
2023/07/25 08:31:16;;;;;;;7.90;4.30;;;;;;;21.63;77.90;99208.84;223109;1267;140670;-91
2023/07/25 08:36:17;;;;;;;10.20;5.00;;;;;;;21.84;76.25;99218.42;223602;1267;138918;-93
2023/07/25 08:41:25;;;;;;;11.60;4.60;;;;;;;21.99;76.26;99229.90;222974;1267;141318;-88
2023/07/25 08:46:28;;;;;;;8.40;4.40;;;;;;;22.07;73.92;99241.96;223541;1267;138841;-93
2023/07/25 08:51:34;;;;;;;8.40;4.40;;;;;;;22.15;73.31;99249.13;222979;1267;141464;-91
2023/07/25 08:56:38;;;;;;;7.90;3.90;;;;;;;22.27;71.85;99258.63;223612;1267;140226;-92
2023/07/25 09:01:38;;;;;;;9.70;5.30;;;;;;;22.43;72.17;99264.77;223159;1267;140825;-91
2023/07/25 09:06:40;;;;;;;8.70;4.70;;;;;;;22.81;72.86;99262.13;223670;1266;139391;-93
2023/07/25 09:11:41;;;;;;;8.00;4.20;;;;;;;23.29;70.40;99268.55;223126;1267;140466;-91
2023/07/25 09:16:41;;;;;;;9.90;4.70;;;;;;;23.70;69.59;99273.50;223602;1267;139088;-92
2023/07/25 09:21:49;;;;;;;7.30;3.70;;;;;;;24.11;67.54;99276.78;223130;1267;140390;-94
2023/07/25 09:26:51;;;;;;;6.40;3.40;;;;;;;24.44;66.06;99270.25;223530;1268;138378;-92
2023/07/25 09:31:53;;;;;;;7.40;3.20;;;;;;;24.75;64.91;99272.10;223116;1267;139031;-93
2023/07/25 09:36:53;;;;;;;9.80;3.70;;;;;;;25.01;63.30;99285.28;223712;1266;95878;-91
2023/07/25 09:41:57;;;;;;;6.90;2.90;;;;;;;25.36;63.47;99273.83;222714;1267;482512;-91
2023/07/25 09:46:58;;;;;;;8.80;2.50;;;;;;;25.61;61.99;99261.39;223541;1267;138193;-94
2023/07/25 09:51:59;;;;;;;8.00;3.00;;;;;;;25.69;60.71;99248.46;223114;1267;139580;-92
2023/07/25 09:57:00;;;;;;;5.30;2.60;;;;;;;25.93;59.87;99238.55;223707;1266;138390;-91
2023/07/25 10:02:01;;;;;;;7.00;3.00;;;;;;;26.07;57.91;99238.16;223055;1266;140706;-93
2023/07/25 10:07:01;;;;;;;5.20;2.60;;;;;;;26.23;59.00;99234.96;223781;1267;96125;-90
2023/07/25 10:12:03;;;;;;;6.00;2.90;;;;;;;26.37;56.17;99238.50;223116;1267;139927;-91
2023/07/25 10:17:06;;;;;;;8.20;2.60;;;;;;;26.35;57.04;99243.12;223588;1267;139137;-93
2023/07/25 10:22:07;;;;;;;3.30;1.80;;;;;;;26.81;56.70;99234.91;223174;1266;139977;-93
2023/07/25 10:27:11;;;;;;;5.10;1.90;;;;;;;27.21;55.12;99237.34;223643;1266;137860;-92
2023/07/25 10:32:13;;;;;;;2.80;1.70;;;;;;;27.62;52.55;99236.56;223125;1267;140518;-92
2023/07/25 10:37:25;;;;;;;2.70;1.80;;;;;;;27.95;53.41;99238.87;223757;1267;95894;-92
2023/07/25 10:42:41;;;;;;;4.00;1.60;;;;;;;28.38;51.97;99251.92;223088;1267;139308;-91
2023/07/25 10:47:43;;;;;;;4.60;1.60;;;;;;;28.71;50.47;99242.22;223632;1267;137854;-90
2023/07/25 10:52:44;;;;;;;3.20;1.50;;;;;;;28.86;47.17;99259.54;223162;1266;140257;-92
2023/07/25 10:58:10;;;;;;;3.70;1.80;;;;;;;28.58;48.05;99247.48;223643;1268;137989;-91
2023/07/25 11:03:31;;;;;;;3.30;1.50;;;;;;;28.73;48.93;99252.75;223133;1266;139955;-92
2023/07/25 11:08:33;;;;;;;5.10;1.50;;;;;;;28.81;46.73;99259.58;223693;1268;139476;-90
2023/07/25 11:13:36;;;;;;;3.70;1.70;;;;;;;28.50;46.00;99269.07;223338;1266;139784;-93
2023/07/25 11:18:48;;;;;;;5.40;1.80;;;;;;;28.38;46.89;99264.73;223615;1270;138594;-94
2023/07/25 11:24:01;;;;;;;3.30;1.60;;;;;;;28.08;46.12;99266.48;223172;1266;139072;-93
2023/07/25 11:29:06;;;;;;;3.30;1.70;;;;;;;27.81;47.25;99272.64;223174;1268;140376;-91
2023/07/25 11:34:10;;;;;;;;;;;;;;;27.67;47.44;99266.82;223595;1266;138497;-91
2023/07/25 11:39:13;;;;;;;3.20;1.70;;;;;;;27.57;47.60;99266.70;223300;1267;127051;-93
2023/07/25 11:44:19;;;;;;;3.20;1.70;;;;;;;27.42;48.03;99256.70;223611;1268;138887;-90
2023/07/25 11:49:20;;;;;;;3.80;2.20;;;;;;;27.35;47.43;99252.81;223133;1269;142590;-92
2023/07/25 11:54:21;;;;;;;5.70;2.30;;;;;;;27.35;47.81;99250.91;223665;1267;138918;-92
2023/07/25 11:59:22;;;;;;;3.80;1.60;;;;;;;27.23;46.76;99236.89;222996;1270;140347;-92
2023/07/25 12:04:23;;;;;;;3.30;1.60;;;;;;;27.01;47.63;99226.29;223600;1268;138280;-92
2023/07/25 12:09:28;;;;;;;5.20;1.60;;;;;;;26.89;48.27;99232.02;223205;1267;140153;-92
2023/07/25 12:14:28;;;;;;;5.50;2.20;;;;;;;26.99;47.88;99239.08;223567;1268;138349;-90
2023/07/25 12:19:31;;;;;;;4.50;2.20;;;;;;;26.83;46.68;99229.25;223274;1267;140994;-90
2023/07/25 12:24:41;;;;;;;2.90;1.90;;;;;;;26.69;47.51;99218.90;223784;1267;137890;-93
2023/07/25 12:29:42;;;;;;;5.10;1.50;;;;;;;26.61;48.08;99218.31;223075;1266;138991;-94
2023/07/25 12:34:45;;;;;;;3.90;1.50;;;;;;;26.71;47.33;99211.67;223615;1269;138390;-91
2023/07/25 12:39:46;;;;;;;5.10;1.90;;;;;;;26.64;45.36;99215.68;223237;1266;139855;-90
2023/07/25 12:44:47;;;;;;;3.10;1.60;;;;;;;26.39;46.49;99217.43;223675;1267;138495;-93
2023/07/25 12:49:47;;;;;;;3.70;1.60;;;;;;;26.43;47.69;99216.45;223277;1267;140721;-90
2023/07/25 12:54:48;;;;;;;6.20;2.00;;;;;;;26.62;47.11;99225.04;223791;1266;137880;-92
2023/07/25 12:59:48;;;;;;;4.20;1.60;;;;;;;26.53;45.63;99221.63;223168;1267;140461;-92
2023/07/25 13:04:48;;;;;;;6.10;1.80;;;;;;;26.48;45.70;99221.27;223753;1267;138590;-90
2023/07/25 13:09:53;;;;;;;3.20;1.50;;;;;;;26.33;44.63;99220.34;223200;1267;140405;-89
2023/07/25 13:14:54;;;;;;;5.30;1.80;;;;;;;26.19;45.27;99217.42;223696;1267;138836;-92
2023/07/25 13:19:55;;;;;;;4.00;1.50;;;;;;;26.09;45.17;99217.10;223315;1267;141091;-91
2023/07/25 13:24:56;;;;;;;2.60;1.40;;;;;;;25.89;45.48;99216.90;223649;1268;138179;-92
2023/07/25 13:29:57;;;;;;;4.70;2.00;;;;;;;25.83;45.72;99222.93;223188;1267;140060;-90
2023/07/25 13:34:57;;;;;;;6.20;2.50;;;;;;;25.69;45.59;99215.52;223715;1266;138204;-90
2023/07/25 13:39:58;;;;;;;4.10;1.90;;;;;;;25.60;45.95;99202.84;223082;1267;140411;-90
2023/07/25 13:44:58;;;;;;;8.20;2.10;;;;;;;25.55;45.58;99205.69;223733;1267;139713;-91
2023/07/25 13:50:02;;;;;;;3.20;1.70;;;;;;;25.44;45.27;99206.58;223225;1268;139762;-91
2023/07/25 13:55:03;;;;;;;4.80;1.80;;;;;;;25.40;45.79;99198.83;223594;1266;138908;-91
2023/07/25 14:00:04;;;;;;;3.30;1.50;;;;;;;25.51;46.50;99196.77;223138;1266;139886;-91
2023/07/25 14:05:05;;;;;;;6.70;2.10;;;;;;;25.64;46.55;99193.02;223651;1267;138047;-89
2023/07/25 14:10:06;;;;;;;3.00;1.50;;;;;;;25.71;46.33;99186.30;223172;1271;139666;-91
2023/07/25 14:15:08;;;;;;;4.60;1.70;;;;;;;25.75;45.90;99185.48;223764;1268;139227;-90
2023/07/25 14:20:09;;;;;;;3.70;2.10;;;;;;;25.68;45.59;99177.44;223180;1268;140198;-89
2023/07/25 14:25:10;;;;;;;4.30;1.80;;;;;;;25.54;45.92;99187.09;223739;1267;95975;-93
2023/07/25 14:30:11;;;;;;;2.70;1.50;;;;;;;25.46;45.84;99186.30;223127;1266;140220;-89
2023/07/25 14:35:18;;;;;;;4.30;1.80;;;;;;;25.23;46.26;99181.89;223691;1267;138390;-90
2023/07/25 14:40:19;;;;;;;5.10;2.00;;;;;;;25.23;46.44;99188.66;222913;1267;140290;-91
2023/07/25 14:45:19;;;;;;;4.10;1.90;;;;;;;25.03;46.40;99186.65;223676;1269;138020;-93
2023/07/25 14:50:20;;;;;;;5.30;1.80;;;;;;;24.95;46.12;99184.83;223161;1268;141202;-91
2023/07/25 14:55:21;;;;;;;3.80;1.70;;;;;;;24.82;46.99;99181.59;223797;1266;95742;-91
2023/07/25 15:00:22;;;;;;;4.20;1.70;;;;;;;24.78;47.53;99190.31;223154;1267;139989;-90
2023/07/25 15:05:22;;;;;;;21.80;3.20;;;;;;;24.68;47.43;99182.73;223689;1266;138707;-90
2023/07/25 15:10:23;;;;;;;3.00;1.80;;;;;;;24.50;47.34;99182.73;222992;1270;140579;-90
2023/07/25 15:15:24;;;;;;;3.60;1.90;;;;;;;24.34;47.44;99178.47;223581;1267;138688;-89
2023/07/25 15:20:24;;;;;;;5.30;2.10;;;;;;;24.27;47.78;99179.60;223115;1266;140254;-90
2023/07/25 15:25:25;;;;;;;4.40;1.80;;;;;;;24.21;48.55;99180.36;223818;1267;95842;-91
2023/07/25 15:30:26;;;;;;;3.60;2.20;;;;;;;24.15;49.38;99173.73;223092;1267;139663;-90
2023/07/25 15:35:26;;;;;;;4.30;1.80;;;;;;;24.12;49.31;99171.30;223583;1267;139524;-90
2023/07/25 15:40:28;;;;;;;4.80;2.30;;;;;;;24.06;49.93;99166.34;222991;1268;139669;-90
2023/07/25 15:45:28;;;;;;;4.30;1.80;;;;;;;23.96;49.32;99162.01;223549;1267;138098;-90
2023/07/25 15:50:29;;;;;;;5.00;2.00;;;;;;;23.89;49.95;99161.83;223153;1267;139670;-89
2023/07/25 15:55:29;;;;;;;6.10;1.90;;;;;;;23.83;50.12;99169.07;223799;1267;96046;-89
2023/07/25 16:00:31;;;;;;;9.20;2.40;;;;;;;23.72;50.37;99166.52;223103;1267;139661;-90
2023/07/25 16:05:32;;;;;;;4.10;1.80;;;;;;;23.47;49.40;99153.54;223614;1267;137910;-90
2023/07/25 16:10:32;;;;;;;6.40;1.90;;;;;;;23.35;49.77;99148.14;223086;1268;139852;-90
2023/07/25 16:15:33;;;;;;;4.20;1.90;;;;;;;23.22;50.78;99148.86;223672;1267;138528;-90
2023/07/25 16:20:33;;;;;;;5.40;2.00;;;;;;;23.17;49.82;99148.50;223173;1267;139761;-89
2023/07/25 16:25:34;;;;;;;4.70;1.80;;;;;;;23.08;49.07;99144.94;223844;1268;95993;-89
2023/07/25 16:30:36;;;;;;;4.90;1.90;;;;;;;22.97;49.71;99144.72;223163;1267;139131;-93
2023/07/25 16:35:36;;;;;;;4.50;1.80;;;;;;;22.98;50.13;99139.27;223686;1267;138398;-91
2023/07/25 16:40:37;;;;;;;4.20;1.90;;;;;;;23.03;49.58;99141.97;223235;1266;140006;-90
2023/07/25 16:45:38;;;;;;;3.90;1.90;;;;;;;23.11;49.27;99144.52;223623;1268;137984;-91
2023/07/25 16:50:39;;;;;;;3.50;1.40;;;;;;;23.10;48.76;99145.44;223107;1267;139651;-90
2023/07/25 16:55:39;;;;;;;3.80;1.80;;;;;;;23.09;48.76;99144.86;223761;1267;96026;-88
2023/07/25 17:00:40;;;;;;;4.50;1.60;;;;;;;23.06;48.60;99143.64;223072;1267;139888;-88
2023/07/25 17:05:40;;;;;;;8.10;1.70;;;;;;;23.02;48.46;99139.02;223659;1267;138294;-89
2023/07/25 17:10:41;;;;;;;6.90;2.20;;;;;;;22.93;48.34;99139.20;223117;1270;140022;-90
2023/07/25 17:15:42;;;;;;;6.40;2.20;;;;;;;22.83;48.55;99139.64;223668;1268;139291;-90
2023/07/25 17:20:43;;;;;;;3.80;1.80;;;;;;;22.82;49.06;99140.58;223112;1266;140157;-89
2023/07/25 17:25:44;;;;;;;5.60;2.00;;;;;;;22.75;49.49;99145.55;223807;1267;96850;-89
2023/07/25 17:30:45;;;;;;;7.70;1.90;;;;;;;22.68;49.35;99145.65;223090;1267;139483;-91
2023/07/25 17:35:46;;;;;;;3.70;2.00;;;;;;;22.60;50.37;99146.52;223670;1267;138502;-90
2023/07/25 17:40:47;;;;;;;6.50;2.10;;;;;;;22.50;50.29;99150.96;223154;1267;139825;-90
2023/07/25 17:45:47;;;;;;;4.10;2.00;;;;;;;22.40;50.63;99160.63;223643;1267;138524;-90
2023/07/25 17:50:48;;;;;;;6.50;2.00;;;;;;;22.31;51.03;99169.86;223183;1267;140353;-91
2023/07/25 17:55:49;;;;;;;6.00;1.90;;;;;;;22.20;51.52;99173.20;223763;1267;96153;-90
2023/07/25 18:00:50;;;;;;;2.80;1.60;;;;;;;22.06;52.09;99167.81;223209;1267;141302;-90
2023/07/25 18:05:51;;;;;;;3.40;1.90;;;;;;;21.94;52.49;99176.02;223691;1267;137817;-90
2023/07/25 18:10:51;;;;;;;3.40;2.10;;;;;;;21.80;52.99;99181.73;223107;1267;140986;-90
2023/07/25 18:15:52;;;;;;;4.80;2.00;;;;;;;21.63;53.34;99186.66;223720;1267;138322;-90
2023/07/25 18:20:52;;;;;;;4.30;2.20;;;;;;;21.50;53.75;99191.80;223023;1267;140489;-90
2023/07/25 18:25:59;;;;;;;4.40;2.10;;;;;;;21.35;54.05;99191.92;223767;1266;96649;-90
2023/07/25 18:30:59;;;;;;;3.60;2.00;;;;;;;21.20;54.61;99191.86;223098;1267;140186;-89
2023/07/25 18:36:00;;;;;;;6.30;2.40;;;;;;;21.04;55.35;99192.55;223696;1267;138846;-90
2023/07/25 18:41:00;;;;;;;4.50;2.00;;;;;;;20.82;55.58;99194.08;223130;1266;141411;-89
2023/07/25 18:46:01;;;;;;;4.60;2.00;;;;;;;20.66;56.18;99197.21;223686;1267;138618;-90
2023/07/25 18:51:02;;;;;;;5.10;2.50;;;;;;;20.50;56.78;99198.11;223153;1266;140092;-90
2023/07/25 18:56:03;;;;;;;7.10;2.50;;;;;;;20.27;57.39;99197.69;223819;1266;96036;-89
2023/07/25 19:01:04;;;;;;;7.40;2.70;;;;;;;20.10;57.90;99206.48;223080;1267;139880;-89
2023/07/25 19:06:05;;;;;;;8.40;2.80;;;;;;;19.93;58.26;99216.60;223703;1267;138400;-89
2023/07/25 19:11:06;;;;;;;5.20;2.20;;;;;;;19.68;58.92;99220.77;223142;1266;140678;-89
2023/07/25 19:16:06;;;;;;;5.70;2.40;;;;;;;19.47;59.48;99226.17;223593;1267;138798;-89
2023/07/25 19:21:07;;;;;;;3.80;2.10;;;;;;;19.31;60.13;99233.17;223100;1266;139563;-89
2023/07/25 19:26:07;;;;;;;5.60;2.10;;;;;;;19.10;60.86;99239.23;223718;1267;96728;-89
2023/07/25 19:31:08;;;;;;;5.60;2.20;;;;;;;18.89;61.69;99239.96;223132;1267;139575;-89
2023/07/25 19:36:08;;;;;;;8.60;3.00;;;;;;;18.68;62.68;99235.66;223628;1267;139186;-90
2023/07/25 19:41:14;;;;;;;6.70;2.40;;;;;;;18.49;63.42;99237.23;223045;1267;139897;-89
2023/07/25 19:46:15;;;;;;;7.50;2.40;;;;;;;18.33;63.98;99239.95;223658;1267;138598;-89
2023/07/25 19:51:15;;;;;;;4.20;2.30;;;;;;;18.20;64.54;99245.12;223135;1266;140092;-89
2023/07/25 19:56:16;;;;;;;6.80;2.40;;;;;;;18.12;64.96;99249.31;223687;1267;138446;-89
2023/07/25 20:01:16;;;;;;;5.40;2.40;;;;;;;18.03;65.80;99253.10;223176;1266;140335;-89
2023/07/25 20:06:17;;;;;;;9.10;2.70;;;;;;;17.93;66.59;99258.48;223678;1267;138534;-90
2023/07/25 20:11:18;;;;;;;6.20;2.70;;;;;;;17.82;66.97;99258.49;223129;1267;139872;-90
2023/07/25 20:16:19;;;;;;;7.70;2.50;;;;;;;17.71;67.78;99264.55;223658;1266;138686;-89
2023/07/25 20:21:24;;;;;;;6.90;2.40;;;;;;;17.63;67.77;99279.72;223008;1266;140510;-89
2023/07/25 20:26:24;;;;;;;5.60;2.90;;;;;;;17.58;68.38;99288.40;223543;1266;138762;-90
2023/07/25 20:31:25;;;;;;;10.80;3.00;;;;;;;17.55;68.26;99288.03;223210;1267;140999;-89
2023/07/25 20:36:25;;;;;;;6.40;2.80;;;;;;;17.52;68.67;99296.02;223645;1267;138898;-88
2023/07/25 20:41:26;;;;;;;5.50;2.40;;;;;;;17.49;69.09;99298.95;223145;1266;140125;-89
2023/07/25 20:46:27;;;;;;;7.10;3.00;;;;;;;17.50;69.20;99297.90;223666;1267;138095;-88
2023/07/25 20:51:27;;;;;;;7.30;3.00;;;;;;;17.47;69.37;99300.32;223102;1266;139592;-89
2023/07/25 20:56:28;;;;;;;5.80;2.50;;;;;;;17.45;70.35;99301.64;223670;1266;139292;-89
2023/07/25 21:01:29;;;;;;;7.80;3.20;;;;;;;17.41;70.57;99304.96;223131;1266;142420;-89
2023/07/25 21:06:29;;;;;;;8.90;3.60;;;;;;;17.39;70.63;99298.85;223668;1266;139259;-89
2023/07/25 21:11:30;;;;;;;7.60;3.10;;;;;;;17.38;71.36;99303.63;223148;1267;140986;-90
2023/07/25 21:16:30;;;;;;;9.70;3.70;;;;;;;17.36;71.88;99307.42;223659;1266;139445;-90
2023/07/25 21:21:31;;;;;;;8.20;3.40;;;;;;;17.34;72.31;99311.92;223152;1267;140978;-90
2023/07/25 21:26:31;;;;;;;8.40;3.40;;;;;;;17.32;73.03;99319.37;223720;1267;139589;-89
2023/07/25 21:31:33;;;;;;;6.90;3.50;;;;;;;17.32;72.80;99322.81;223256;1266;142017;-89
2023/07/25 21:36:33;;;;;;;8.10;3.20;;;;;;;17.32;72.85;99328.60;223698;1266;139126;-89
2023/07/25 21:41:34;;;;;;;9.40;3.80;;;;;;;17.33;72.76;99333.27;222797;1266;391905;-89
2023/07/25 21:46:34;;;;;;;8.90;3.60;;;;;;;17.32;73.44;99335.51;223580;1267;139449;-89
2023/07/25 21:51:35;;;;;;;8.50;4.30;;;;;;;17.31;73.45;99343.02;223097;1266;141553;-89
2023/07/25 21:56:36;;;;;;;11.00;4.50;;;;;;;17.30;74.29;99339.88;223716;1266;139419;-90
2023/07/25 22:01:36;;;;;;;8.40;4.00;;;;;;;17.30;75.18;99338.54;223202;1267;140770;-92
2023/07/25 22:11:42;;;;;;;8.20;3.80;;;;;;;17.23;78.13;99346.96;223127;1266;140612;-91
2023/07/25 22:16:50;;;;;;;10.40;3.90;;;;;;;17.17;80.38;99347.95;223729;1266;138761;-92
2023/07/25 22:21:53;;;;;;;13.70;4.60;;;;;;;17.10;81.73;99350.16;223171;1266;141244;-90
2023/07/25 22:26:54;;;;;;;8.40;4.30;;;;;;;17.05;82.78;99352.39;223692;1267;139512;-88
2023/07/25 22:31:55;;;;;;;9.30;4.50;;;;;;;17.02;84.02;99353.90;223274;1267;140709;-89
2023/07/25 22:36:55;;;;;;;8.60;4.70;;;;;;;17.00;84.56;99356.35;223731;1267;139135;-88
2023/07/25 22:41:55;;;;;;;7.60;4.60;;;;;;;16.98;85.64;99364.61;223092;1267;141145;-88
2023/07/25 22:46:56;;;;;;;8.50;4.40;;;;;;;16.95;86.42;99367.30;223695;1266;139727;-87
2023/07/25 22:51:56;;;;;;;10.00;3.50;;;;;;;16.92;87.00;99370.91;223175;1266;141511;-86
2023/07/25 22:56:57;;;;;;;10.00;4.60;;;;;;;16.89;86.66;99373.33;223709;1266;139436;-85
2023/07/25 23:01:57;;;;;;;7.70;4.20;;;;;;;16.88;88.20;99378.36;223284;1266;142631;-86
2023/07/25 23:06:58;;;;;;;8.80;3.50;;;;;;;16.82;88.69;99380.67;223629;1267;139171;-86